createdAt,value
2023-03-26T00:00:15.612Z,5.67
2023-03-26T00:02:44.208Z,5.66
2023-03-26T00:05:14.725Z,5.85
2023-03-26T00:07:44.923Z,5.80
2023-03-26T00:10:15.607Z,5.78
2023-03-26T00:12:44.089Z,5.97
2023-03-26T00:15:13.142Z,5.92
2023-03-26T00:17:41.571Z,5.88
2023-03-26T00:20:10.944Z,5.77
2023-03-26T00:22:39.512Z,5.63
2023-03-26T00:25:10.052Z,5.61
2023-03-26T00:27:38.912Z,5.52
2023-03-26T00:30:09.005Z,5.61
2023-03-26T00:32:37.508Z,5.59
2023-03-26T00:35:07.036Z,5.53
2023-03-26T00:37:35.514Z,5.55
2023-03-26T00:40:07.813Z,5.58
2023-03-26T00:42:38.167Z,5.60
2023-03-26T00:45:07.730Z,5.67
2023-03-26T00:47:36.257Z,5.59
2023-03-26T00:50:05.468Z,5.55
2023-03-26T00:52:36.281Z,5.58
2023-03-26T00:55:04.974Z,5.56
2023-03-26T00:57:36.177Z,5.53
2023-03-26T01:00:16.606Z,5.56
2023-03-26T01:02:45.522Z,5.61
2023-03-26T01:05:43.700Z,5.51
2023-03-26T01:08:26.318Z,5.44
2023-03-26T01:11:02.889Z,5.35
2023-03-26T01:13:33.857Z,5.27
2023-03-26T01:16:05.515Z,5.24
2023-03-26T01:18:41.221Z,5.26
2023-03-26T01:21:14.025Z,5.25
2023-03-26T01:23:46.633Z,5.21
2023-03-26T01:26:28.863Z,5.11
2023-03-26T01:28:58.929Z,5.21
2023-03-26T01:31:30.833Z,5.25
2023-03-26T01:34:05.742Z,5.09
2023-03-26T01:36:39.507Z,5.14
2023-03-26T01:39:11.381Z,5.18
2023-03-26T01:41:50.581Z,5.11
2023-03-26T01:44:24.654Z,5.07
2023-03-26T01:46:55.082Z,5.04
2023-03-26T01:49:23.748Z,5.01
2023-03-26T01:51:52.324Z,4.94
2023-03-26T01:54:22.830Z,5.03
2023-03-26T01:57:03.976Z,5.02
2023-03-26T01:59:47.300Z,5.04
2023-03-26T02:02:18.960Z,4.97
2023-03-26T02:04:53.447Z,4.93
2023-03-26T02:07:25.911Z,4.89
2023-03-26T02:09:59.580Z,4.81
2023-03-26T02:12:30.681Z,4.81
2023-03-26T02:15:00.818Z,4.85
2023-03-26T02:17:30.267Z,4.85
2023-03-26T02:19:59.146Z,4.74
2023-03-26T02:22:32.275Z,4.81
2023-03-26T02:25:01.147Z,4.81
2023-03-26T02:27:33.941Z,4.83
2023-03-26T02:30:02.816Z,4.89
2023-03-26T02:32:31.632Z,4.85
2023-03-26T02:35:00.154Z,4.73
2023-03-26T02:37:31.393Z,4.70
2023-03-26T02:40:11.850Z,4.77
2023-03-26T02:42:44.896Z,4.69
2023-03-26T02:45:13.329Z,4.67
2023-03-26T02:47:51.210Z,4.62
2023-03-26T02:50:46.137Z,4.59
2023-03-26T02:53:33.335Z,4.73
2023-03-26T02:56:40.418Z,4.83
2023-03-26T02:59:28.997Z,5.38
2023-03-26T03:02:16.219Z,5.22
2023-03-26T03:04:45.276Z,5.40
2023-03-26T03:07:18.338Z,5.57
2023-03-26T03:09:47.279Z,5.59
2023-03-26T03:12:41.860Z,5.57
2023-03-26T03:15:13.239Z,5.75
2023-03-26T03:17:42.257Z,5.67
2023-03-26T03:20:12.846Z,5.89
2023-03-26T03:22:42.024Z,5.81
2023-03-26T03:25:14.387Z,5.80
2023-03-26T03:27:43.653Z,5.80
2023-03-26T03:30:17.775Z,5.75
2023-03-26T03:33:16.007Z,5.74
2023-03-26T03:35:46.093Z,5.70
2023-03-26T03:38:14.589Z,5.72
2023-03-26T03:40:49.188Z,5.47
2023-03-26T03:43:18.658Z,5.39
2023-03-26T03:46:08.055Z,5.34
2023-03-26T03:48:49.888Z,5.28
2023-03-26T03:51:38.727Z,5.23
2023-03-26T03:54:22.148Z,5.21
2023-03-26T03:57:06.415Z,5.56
2023-03-26T03:59:47.931Z,5.42
2023-03-26T04:02:26.757Z,5.86
2023-03-26T04:05:18.733Z,5.87
2023-03-26T04:07:50.440Z,5.94
2023-03-26T04:10:30.488Z,5.96
2023-03-26T04:13:31.164Z,5.99
2023-03-26T04:16:22.732Z,6.12
2023-03-26T04:18:52.832Z,6.17
2023-03-26T04:21:21.294Z,6.09
2023-03-26T04:23:50.027Z,6.02
2023-03-26T04:26:34.665Z,6.15
2023-03-26T04:29:11.973Z,6.11
2023-03-26T04:31:43.320Z,6.10
2023-03-26T04:34:24.422Z,6.12
2023-03-26T04:37:19.131Z,6.18
2023-03-26T04:39:57.144Z,6.32
2023-03-26T04:42:34.787Z,6.47
2023-03-26T04:45:11.910Z,6.41
2023-03-26T04:47:43.195Z,6.49
2023-03-26T04:50:13.876Z,6.47
2023-03-26T04:52:45.141Z,6.61
2023-03-26T04:55:35.430Z,6.62
2023-03-26T04:58:14.090Z,6.65
2023-03-26T05:00:56.105Z,6.77
2023-03-26T05:03:25.840Z,6.65
2023-03-26T05:05:58.311Z,6.72
2023-03-26T05:08:28.988Z,6.79
2023-03-26T05:10:58.184Z,6.66
2023-03-26T05:13:33.086Z,6.81
2023-03-26T05:16:07.865Z,6.88
2023-03-26T05:18:56.901Z,6.81
2023-03-26T05:21:30.841Z,6.72
2023-03-26T05:23:59.539Z,6.64
2023-03-26T05:26:29.272Z,6.53
2023-03-26T05:28:58.720Z,6.51
2023-03-26T05:31:36.341Z,6.57
2023-03-26T05:34:06.858Z,6.50
2023-03-26T05:36:36.901Z,6.64
2023-03-26T05:39:25.804Z,6.75
2023-03-26T05:42:14.582Z,6.85
2023-03-26T05:45:03.395Z,6.89
2023-03-26T05:47:34.577Z,6.97
2023-03-26T05:50:03.060Z,6.99
2023-03-26T05:52:33.099Z,6.96
2023-03-26T05:55:33.449Z,7.07
2023-03-26T05:58:25.166Z,7.10
2023-03-26T06:01:00.160Z,7.09
2023-03-26T06:03:40.688Z,7.01
2023-03-26T06:06:20.373Z,7.05
2023-03-26T06:09:01.371Z,7.04
2023-03-26T06:11:32.988Z,7.11
2023-03-26T06:14:03.265Z,7.18
2023-03-26T06:16:33.016Z,7.29
2023-03-26T06:19:13.701Z,7.39
2023-03-26T06:21:51.375Z,7.47
2023-03-26T06:24:43.947Z,7.53
2023-03-26T06:27:32.848Z,7.54
2023-03-26T06:30:21.270Z,7.53
2023-03-26T06:33:10.172Z,7.49
2023-03-26T06:35:46.083Z,7.47
2023-03-26T06:38:16.709Z,7.43
2023-03-26T06:40:46.657Z,7.43
2023-03-26T06:43:23.933Z,7.39
2023-03-26T06:45:58.070Z,7.35
2023-03-26T06:48:47.056Z,7.44
2023-03-26T06:51:19.875Z,7.35
2023-03-26T06:54:07.306Z,7.34
2023-03-26T06:56:53.945Z,7.33
2023-03-26T06:59:43.045Z,7.38
2023-03-26T07:02:32.613Z,7.45
2023-03-26T07:05:19.971Z,7.55
2023-03-26T07:08:07.292Z,7.61
2023-03-26T07:11:04.974Z,7.47
2023-03-26T07:14:10.818Z,7.42
2023-03-26T07:16:56.078Z,7.34
2023-03-26T07:19:44.869Z,7.39
2023-03-26T07:22:16.953Z,7.35
2023-03-26T07:25:05.592Z,7.27
2023-03-26T07:28:02.542Z,7.30
2023-03-26T07:31:00.174Z,7.40
2023-03-26T07:33:47.695Z,7.31
2023-03-26T07:36:29.622Z,7.27
2023-03-26T07:39:31.620Z,7.35
2023-03-26T07:42:16.470Z,7.32
2023-03-26T07:45:14.118Z,7.31
2023-03-26T07:48:04.815Z,7.33
2023-03-26T07:51:00.291Z,7.38
2023-03-26T07:53:49.934Z,7.33
2023-03-26T07:57:00.084Z,7.37
2023-03-26T07:59:55.905Z,7.32
2023-03-26T08:03:24.452Z,7.22
2023-03-26T08:06:05.700Z,7.15
2023-03-26T08:09:00.050Z,7.06
2023-03-26T08:11:59.216Z,7.02
2023-03-26T08:14:42.516Z,6.85
2023-03-26T08:17:19.238Z,6.63
2023-03-26T08:20:02.386Z,6.57
2023-03-26T08:22:36.882Z,6.47
2023-03-26T08:25:18.968Z,6.35
2023-03-26T08:27:57.257Z,6.34
2023-03-26T08:30:28.052Z,6.30
2023-03-26T08:33:01.987Z,6.26
2023-03-26T08:35:31.155Z,6.22
2023-03-26T08:38:03.454Z,6.23
2023-03-26T08:41:03.854Z,6.13
2023-03-26T08:44:10.918Z,6.02
2023-03-26T08:46:57.946Z,6.04
2023-03-26T08:49:48.603Z,6.10
2023-03-26T08:52:55.868Z,6.10
2023-03-26T08:55:46.914Z,6.13
2023-03-26T08:58:38.756Z,6.18
2023-03-26T09:01:54.009Z,6.26
2023-03-26T09:04:43.972Z,6.41
2023-03-26T09:07:37.851Z,6.40
2023-03-26T09:10:40.461Z,6.50
2023-03-26T09:13:39.585Z,6.51
2023-03-26T09:16:24.788Z,6.56
2023-03-26T09:19:19.556Z,6.53
2023-03-26T09:22:18.308Z,6.51
2023-03-26T09:25:11.126Z,6.59
2023-03-26T09:27:42.079Z,6.63
2023-03-26T09:30:37.690Z,6.59
2023-03-26T09:33:25.621Z,6.37
2023-03-26T09:36:06.295Z,6.29
2023-03-26T09:38:46.829Z,6.21
2023-03-26T09:41:19.378Z,6.30
2023-03-26T09:44:12.759Z,6.21
2023-03-26T09:46:50.720Z,6.21
2023-03-26T09:49:43.271Z,6.24
2023-03-26T09:52:19.592Z,6.29
2023-03-26T09:54:58.315Z,6.20
2023-03-26T09:57:43.036Z,6.20
2023-03-26T10:00:30.470Z,6.23
2023-03-26T10:03:14.635Z,6.29
2023-03-26T10:05:59.359Z,6.20
2023-03-26T10:08:38.455Z,6.19
2023-03-26T10:11:14.689Z,6.21
2023-03-26T10:13:54.178Z,6.23
2023-03-26T10:16:26.995Z,6.36
2023-03-26T10:19:10.152Z,6.36
2023-03-26T10:21:44.456Z,6.41
2023-03-26T10:24:21.957Z,6.48
2023-03-26T10:27:12.936Z,6.52
2023-03-26T10:30:08.053Z,6.39
2023-03-26T10:32:45.884Z,6.50
2023-03-26T10:35:25.031Z,6.53
2023-03-26T10:38:07.593Z,6.53
2023-03-26T10:40:43.165Z,6.54
2023-03-26T10:43:54.690Z,6.61
2023-03-26T10:47:01.253Z,6.55
2023-03-26T10:50:02.004Z,6.60
2023-03-26T10:52:38.001Z,6.56
2023-03-26T10:55:13.150Z,6.61
2023-03-26T10:57:47.225Z,6.66
2023-03-26T11:00:23.422Z,6.62
2023-03-26T11:03:11.267Z,6.61
2023-03-26T11:05:53.526Z,6.73
2023-03-26T11:08:31.498Z,6.74
2023-03-26T11:11:09.368Z,6.75
2023-03-26T11:13:48.991Z,6.68
2023-03-26T11:16:21.175Z,6.79
2023-03-26T11:18:53.340Z,6.83
2023-03-26T11:21:26.273Z,6.80
2023-03-26T11:24:16.721Z,6.82
2023-03-26T11:26:53.002Z,6.85
2023-03-26T11:29:38.041Z,6.73
2023-03-26T11:32:11.798Z,6.76
2023-03-26T11:34:44.957Z,6.80
2023-03-26T11:37:17.678Z,6.70
2023-03-26T11:39:53.389Z,6.82
2023-03-26T11:42:24.806Z,6.87
2023-03-26T11:44:56.632Z,6.98
2023-03-26T11:47:32.230Z,6.87
2023-03-26T11:50:01.889Z,6.97
2023-03-26T11:52:34.070Z,6.87
2023-03-26T11:55:04.261Z,6.96
2023-03-26T11:57:34.827Z,7.10
2023-03-26T12:00:08.484Z,7.09
2023-03-26T12:02:42.678Z,7.05
2023-03-26T12:05:18.271Z,7.00
2023-03-26T12:07:51.382Z,7.08
2023-03-26T12:10:29.673Z,7.00
2023-03-26T12:13:00.149Z,7.10
2023-03-26T12:15:29.341Z,7.06
2023-03-26T12:17:59.485Z,7.01
2023-03-26T12:20:38.827Z,7.06
2023-03-26T12:23:08.506Z,7.03
2023-03-26T12:25:40.256Z,7.06
2023-03-26T12:28:18.447Z,7.13
2023-03-26T12:30:55.087Z,7.07
2023-03-26T12:33:28.104Z,7.13
2023-03-26T12:35:58.514Z,7.06
2023-03-26T12:38:33.414Z,7.05
2023-03-26T12:41:08.705Z,7.06
2023-03-26T12:44:55.610Z,7.12
2023-03-26T12:47:56.875Z,7.09
2023-03-26T12:49:36.789Z,7.12
2023-03-26T12:52:17.209Z,7.13
2023-03-26T12:54:49.244Z,7.05
2023-03-26T12:57:22.852Z,7.17
2023-03-26T12:59:58.603Z,7.16
2023-03-26T13:02:49.988Z,7.12
2023-03-26T13:05:41.141Z,7.06
2023-03-26T13:08:33.969Z,7.23
2023-03-26T13:11:07.326Z,7.16
2023-03-26T13:14:00.854Z,7.17
2023-03-26T13:16:37.024Z,6.96
2023-03-26T13:19:09.403Z,7.05
2023-03-26T13:21:45.672Z,7.08
2023-03-26T13:24:23.151Z,7.09
2023-03-26T13:27:01.935Z,6.96
2023-03-26T13:29:38.342Z,6.95
2023-03-26T13:32:15.691Z,6.94
2023-03-26T13:34:57.521Z,6.99
2023-03-26T13:37:30.313Z,7.05
2023-03-26T13:40:06.885Z,6.99
2023-03-26T13:42:44.540Z,6.92
2023-03-26T13:45:26.297Z,6.91
2023-03-26T13:47:56.829Z,6.83
2023-03-26T13:50:27.480Z,6.84
2023-03-26T13:53:00.274Z,6.91
2023-03-26T13:55:31.280Z,6.89
2023-03-26T13:58:05.136Z,6.74
2023-03-26T14:00:54.889Z,6.75
2023-03-26T14:03:29.220Z,6.84
2023-03-26T14:05:59.406Z,6.76
2023-03-26T14:08:32.925Z,6.83
2023-03-26T14:11:08.928Z,6.71
2023-03-26T14:13:42.472Z,6.76
2023-03-26T14:16:17.380Z,6.70
2023-03-26T14:18:49.088Z,6.73
2023-03-26T14:21:41.104Z,6.66
2023-03-26T14:24:28.630Z,6.58
2023-03-26T14:27:06.723Z,6.63
2023-03-26T14:29:57.502Z,6.61
2023-03-26T14:32:39.124Z,6.59
2023-03-26T14:35:20.426Z,6.63
2023-03-26T14:38:16.401Z,6.70
2023-03-26T14:40:58.838Z,6.69
2023-03-26T14:43:50.988Z,6.69
2023-03-26T14:46:36.125Z,6.58
2023-03-26T14:49:29.099Z,6.57
2023-03-26T14:52:11.050Z,6.45
2023-03-26T14:54:41.816Z,6.52
2023-03-26T14:57:47.820Z,6.51
2023-03-26T15:00:49.683Z,6.52
2023-03-26T15:03:55.612Z,6.46
2023-03-26T15:07:02.942Z,6.38
2023-03-26T15:10:08.556Z,6.36
2023-03-26T15:12:52.315Z,6.44
2023-03-26T15:15:53.918Z,6.50
2023-03-26T15:19:02.024Z,6.50
2023-03-26T15:21:59.108Z,6.45
2023-03-26T15:25:06.028Z,6.37
2023-03-26T15:27:52.133Z,6.47
2023-03-26T15:31:10.069Z,6.29
2023-03-26T15:34:21.848Z,6.29
2023-03-26T15:37:27.807Z,6.26
2023-03-26T15:40:17.954Z,6.24
2023-03-26T15:42:59.910Z,6.18
2023-03-26T15:45:41.310Z,6.17
2023-03-26T15:48:36.732Z,6.17
2023-03-26T15:51:22.102Z,6.10
2023-03-26T15:53:56.602Z,6.17
2023-03-26T15:56:33.061Z,6.18
2023-03-26T15:59:07.818Z,6.14
2023-03-26T16:01:47.423Z,6.21
2023-03-26T16:04:50.329Z,6.20
2023-03-26T16:07:58.954Z,6.17
2023-03-26T16:10:29.732Z,6.19
2023-03-26T16:13:29.899Z,6.17
2023-03-26T16:16:18.749Z,6.11
2023-03-26T16:18:48.507Z,6.16
2023-03-26T16:21:46.607Z,6.19
2023-03-26T16:24:33.719Z,6.11
2023-03-26T16:27:33.580Z,6.20
2023-03-26T16:30:28.093Z,6.27
2023-03-26T16:32:59.339Z,6.31
2023-03-26T16:35:59.831Z,6.19
2023-03-26T16:38:28.848Z,6.23
2023-03-26T16:41:03.780Z,6.23
2023-03-26T16:43:43.967Z,6.34
2023-03-26T16:46:21.509Z,6.35
2023-03-26T16:48:58.104Z,6.35
2023-03-26T16:51:35.489Z,6.36
2023-03-26T16:54:13.542Z,6.32
2023-03-26T16:56:47.893Z,6.25
2023-03-26T16:59:38.019Z,6.21
2023-03-26T17:02:17.612Z,6.17
2023-03-26T17:04:50.275Z,6.18
2023-03-26T17:07:21.836Z,6.13
2023-03-26T17:09:55.870Z,6.21
2023-03-26T17:12:31.516Z,6.19
2023-03-26T17:15:18.961Z,6.17
2023-03-26T17:17:56.892Z,6.17
2023-03-26T17:20:33.310Z,6.19
2023-03-26T17:23:11.897Z,6.15
2023-03-26T17:25:46.595Z,6.18
2023-03-26T17:28:48.248Z,6.06
2023-03-26T17:31:23.817Z,6.08
2023-03-26T17:33:53.703Z,6.05
2023-03-26T17:36:32.523Z,6.08
2023-03-26T17:39:05.257Z,5.98
2023-03-26T17:41:57.262Z,6.00
2023-03-26T17:44:46.038Z,5.94
2023-03-26T17:47:28.010Z,6.07
2023-03-26T17:50:01.267Z,5.92
2023-03-26T17:52:42.623Z,5.87
2023-03-26T17:55:17.514Z,5.91
2023-03-26T17:57:52.060Z,5.88
2023-03-26T18:00:24.207Z,5.87
2023-03-26T18:02:57.315Z,5.86
2023-03-26T18:05:29.419Z,5.92
2023-03-26T18:08:24.830Z,5.90
2023-03-26T18:11:12.487Z,5.94
2023-03-26T18:14:18.398Z,5.95
2023-03-26T18:16:49.511Z,5.95
2023-03-26T18:19:19.595Z,5.95
2023-03-26T18:21:50.574Z,5.90
2023-03-26T18:24:24.530Z,5.85
2023-03-26T18:26:58.653Z,5.88
2023-03-26T18:29:29.965Z,5.81
2023-03-26T18:32:00.845Z,5.87
2023-03-26T18:34:31.927Z,5.80
2023-03-26T18:37:16.685Z,5.91
2023-03-26T18:39:59.124Z,5.89
2023-03-26T18:42:29.181Z,5.91
2023-03-26T18:45:00.286Z,5.92
2023-03-26T18:47:32.124Z,5.87
2023-03-26T18:50:01.429Z,5.83
2023-03-26T18:52:31.363Z,5.87
2023-03-26T18:55:01.290Z,5.81
2023-03-26T18:57:30.697Z,5.81
2023-03-26T19:00:15.761Z,5.62
2023-03-26T19:02:44.569Z,5.59
2023-03-26T19:05:16.015Z,5.46
2023-03-26T19:07:47.028Z,5.29
2023-03-26T19:10:21.509Z,5.21
2023-03-26T19:12:57.180Z,5.14
2023-03-26T19:15:27.401Z,5.11
2023-03-26T19:17:59.899Z,5.00
2023-03-26T19:20:30.671Z,4.95
2023-03-26T19:22:59.445Z,4.97
2023-03-26T19:25:32.527Z,4.85
2023-03-26T19:28:01.765Z,4.79
2023-03-26T19:30:34.297Z,4.81
2023-03-26T19:33:13.230Z,4.68
2023-03-26T19:35:44.929Z,4.35
2023-03-26T19:38:23.545Z,4.32
2023-03-26T19:40:54.743Z,4.27
2023-03-26T19:43:24.221Z,4.08
2023-03-26T19:46:00.369Z,4.02
2023-03-26T19:48:46.113Z,4.00
2023-03-26T19:51:26.426Z,3.93
2023-03-26T19:53:57.097Z,3.88
2023-03-26T19:56:29.665Z,3.89
2023-03-26T19:58:59.362Z,3.88
2023-03-26T20:01:30.824Z,3.86
2023-03-26T20:04:02.527Z,3.85
2023-03-26T20:06:42.292Z,3.73
2023-03-26T20:09:13.319Z,3.67
2023-03-26T20:11:44.373Z,3.64
2023-03-26T20:14:15.979Z,3.64
2023-03-26T20:16:46.561Z,3.67
2023-03-26T20:19:15.697Z,3.59
2023-03-26T20:21:45.002Z,3.53
2023-03-26T20:24:15.897Z,3.52
2023-03-26T20:26:47.248Z,3.48
2023-03-26T20:29:17.355Z,3.45
2023-03-26T20:31:46.407Z,3.48
2023-03-26T20:34:20.922Z,3.45
2023-03-26T20:36:54.522Z,3.44
2023-03-26T20:39:24.310Z,3.46
2023-03-26T20:41:56.513Z,3.50
2023-03-26T20:44:27.010Z,3.55
2023-03-26T20:46:56.582Z,3.51
2023-03-26T20:49:29.421Z,3.51
2023-03-26T20:51:59.684Z,3.52
2023-03-26T20:54:29.846Z,3.53
2023-03-26T20:57:00.195Z,3.54
2023-03-26T20:59:36.048Z,3.52
2023-03-26T21:02:10.443Z,3.53
2023-03-26T21:04:40.429Z,3.45
2023-03-26T21:07:18.228Z,3.49
2023-03-26T21:09:48.948Z,3.51
2023-03-26T21:12:25.931Z,3.50
2023-03-26T21:14:55.859Z,3.50
2023-03-26T21:17:25.370Z,3.42
2023-03-26T21:19:54.830Z,3.43
2023-03-26T21:22:31.946Z,3.42
2023-03-26T21:25:12.997Z,3.39
2023-03-26T21:27:49.864Z,3.40
2023-03-26T21:30:19.263Z,3.43
2023-03-26T21:32:48.788Z,3.40
2023-03-26T21:35:18.273Z,3.39
2023-03-26T21:37:48.961Z,3.37
2023-03-26T21:40:18.592Z,3.42
2023-03-26T21:42:50.387Z,3.42
2023-03-26T21:45:20.652Z,3.37
2023-03-26T21:47:50.483Z,3.43
2023-03-26T21:50:21.990Z,3.44
2023-03-26T21:52:51.678Z,3.43
2023-03-26T21:55:21.932Z,3.43
2023-03-26T21:58:17.163Z,3.38
2023-03-26T22:00:51.974Z,3.40
2023-03-26T22:03:25.246Z,3.33
2023-03-26T22:05:57.817Z,3.32
2023-03-26T22:08:32.417Z,3.31
2023-03-26T22:11:01.524Z,3.33
2023-03-26T22:13:31.834Z,3.40
2023-03-26T22:16:00.944Z,3.35
2023-03-26T22:18:30.305Z,3.34
2023-03-26T22:20:59.407Z,3.27
2023-03-26T22:23:28.031Z,3.26
2023-03-26T22:25:56.534Z,3.27
2023-03-26T22:28:24.954Z,3.24
2023-03-26T22:30:55.031Z,3.23
2023-03-26T22:33:23.581Z,3.22
2023-03-26T22:35:52.459Z,3.24
2023-03-26T22:38:22.161Z,3.21
2023-03-26T22:40:57.276Z,3.25
2023-03-26T22:43:26.283Z,3.27
2023-03-26T22:45:56.041Z,3.17
2023-03-26T22:48:25.098Z,3.24
2023-03-26T22:51:01.059Z,3.19
2023-03-26T22:53:30.413Z,3.16
2023-03-26T22:55:59.130Z,3.16
2023-03-26T22:58:28.332Z,3.14
2023-03-26T23:01:05.129Z,3.14
2023-03-26T23:03:36.968Z,3.15
2023-03-26T23:06:07.269Z,3.13
2023-03-26T23:08:37.525Z,3.16
2023-03-26T23:11:10.517Z,3.12
2023-03-26T23:13:41.759Z,3.13
2023-03-26T23:16:13.127Z,3.11
2023-03-26T23:18:41.748Z,3.06
2023-03-26T23:21:14.977Z,3.11
2023-03-26T23:23:43.698Z,3.08
2023-03-26T23:26:14.382Z,3.08
2023-03-26T23:28:43.493Z,3.08
2023-03-26T23:31:14.201Z,2.99
2023-03-26T23:33:46.558Z,2.97
2023-03-26T23:36:17.872Z,2.95
2023-03-26T23:38:47.995Z,2.88
2023-03-26T23:41:16.985Z,2.94
2023-03-26T23:43:54.740Z,2.93
2023-03-26T23:46:30.989Z,2.87
2023-03-26T23:49:02.592Z,2.84
2023-03-26T23:51:31.839Z,2.89
2023-03-26T23:54:00.603Z,2.90
2023-03-26T23:56:29.916Z,2.91
2023-03-26T23:58:58.500Z,2.88
